sensor_id;sensor_type;location;lat;lon;timestamp;temperature;humidity
71098;SHT35;58754;47.622;-2.986;2023-05-10T00:01:26;21.24;58.73
71098;SHT35;58754;47.622;-2.986;2023-05-10T00:03:51;21.23;58.69
71098;SHT35;58754;47.622;-2.986;2023-05-10T00:06:17;21.23;58.63
71098;SHT35;58754;47.622;-2.986;2023-05-10T00:08:44;21.24;58.67
71098;SHT35;58754;47.622;-2.986;2023-05-10T00:11:09;21.23;58.66
71098;SHT35;58754;47.622;-2.986;2023-05-10T00:13:35;21.21;58.67
71098;SHT35;58754;47.622;-2.986;2023-05-10T00:16:01;21.23;58.68
71098;SHT35;58754;47.622;-2.986;2023-05-10T00:18:27;21.20;58.67
71098;SHT35;58754;47.622;-2.986;2023-05-10T00:20:52;21.23;58.65
71098;SHT35;58754;47.622;-2.986;2023-05-10T00:23:18;21.23;58.67
71098;SHT35;58754;47.622;-2.986;2023-05-10T00:25:44;21.21;58.62
71098;SHT35;58754;47.622;-2.986;2023-05-10T00:28:10;21.21;58.56
71098;SHT35;58754;47.622;-2.986;2023-05-10T00:30:35;21.20;58.54
71098;SHT35;58754;47.622;-2.986;2023-05-10T00:33:01;21.18;58.58
71098;SHT35;58754;47.622;-2.986;2023-05-10T00:35:28;21.20;58.54
71098;SHT35;58754;47.622;-2.986;2023-05-10T00:37:54;21.18;58.54
71098;SHT35;58754;47.622;-2.986;2023-05-10T00:40:20;21.18;58.55
71098;SHT35;58754;47.622;-2.986;2023-05-10T00:42:46;21.17;58.57
71098;SHT35;58754;47.622;-2.986;2023-05-10T00:45:11;21.18;58.56
71098;SHT35;58754;47.622;-2.986;2023-05-10T00:47:37;21.21;58.54
71098;SHT35;58754;47.622;-2.986;2023-05-10T00:50:04;21.18;58.51
71098;SHT35;58754;47.622;-2.986;2023-05-10T00:52:31;21.20;58.52
71098;SHT35;58754;47.622;-2.986;2023-05-10T00:54:57;21.18;58.54
71098;SHT35;58754;47.622;-2.986;2023-05-10T00:57:24;21.15;58.50
71098;SHT35;58754;47.622;-2.986;2023-05-10T00:59:50;21.18;58.50
71098;SHT35;58754;47.622;-2.986;2023-05-10T01:02:16;21.17;58.47
71098;SHT35;58754;47.622;-2.986;2023-05-10T01:04:43;21.15;58.45
71098;SHT35;58754;47.622;-2.986;2023-05-10T01:07:08;21.18;58.43
71098;SHT35;58754;47.622;-2.986;2023-05-10T01:09:34;21.17;58.49
71098;SHT35;58754;47.622;-2.986;2023-05-10T01:12:01;21.15;58.39
71098;SHT35;58754;47.622;-2.986;2023-05-10T01:14:28;21.17;58.47
71098;SHT35;58754;47.622;-2.986;2023-05-10T01:16:54;21.17;58.43
71098;SHT35;58754;47.622;-2.986;2023-05-10T01:19:25;21.15;58.42
71098;SHT35;58754;47.622;-2.986;2023-05-10T01:27:08;21.14;58.42
71098;SHT35;58754;47.622;-2.986;2023-05-10T01:30:08;21.14;58.40
71098;SHT35;58754;47.622;-2.986;2023-05-10T01:35:34;21.14;58.40
71098;SHT35;58754;47.622;-2.986;2023-05-10T01:38:13;21.11;58.40
71098;SHT35;58754;47.622;-2.986;2023-05-10T01:43:33;21.12;58.36
71098;SHT35;58754;47.622;-2.986;2023-05-10T01:46:07;21.12;58.38
71098;SHT35;58754;47.622;-2.986;2023-05-10T01:48:51;21.11;58.37
71098;SHT35;58754;47.622;-2.986;2023-05-10T01:51:22;21.11;58.37
71098;SHT35;58754;47.622;-2.986;2023-05-10T01:53:49;21.11;58.29
71098;SHT35;58754;47.622;-2.986;2023-05-10T01:56:19;21.11;58.30
71098;SHT35;58754;47.622;-2.986;2023-05-10T01:58:48;21.12;58.32
71098;SHT35;58754;47.622;-2.986;2023-05-10T02:01:15;21.10;58.36
71098;SHT35;58754;47.622;-2.986;2023-05-10T02:03:42;21.11;58.27
71098;SHT35;58754;47.622;-2.986;2023-05-10T02:06:10;21.11;58.28
71098;SHT35;58754;47.622;-2.986;2023-05-10T02:08:40;21.08;58.30
71098;SHT35;58754;47.622;-2.986;2023-05-10T02:11:13;21.10;58.25
71098;SHT35;58754;47.622;-2.986;2023-05-10T02:13:39;21.11;58.26
71098;SHT35;58754;47.622;-2.986;2023-05-10T02:16:07;21.08;58.27
71098;SHT35;58754;47.622;-2.986;2023-05-10T02:18:34;21.10;58.27
71098;SHT35;58754;47.622;-2.986;2023-05-10T02:21:02;21.08;58.27
71098;SHT35;58754;47.622;-2.986;2023-05-10T02:23:29;21.08;58.19
71098;SHT35;58754;47.622;-2.986;2023-05-10T02:25:57;21.10;58.26
71098;SHT35;58754;47.622;-2.986;2023-05-10T02:28:25;21.08;58.27
71098;SHT35;58754;47.622;-2.986;2023-05-10T02:30:53;21.06;58.22
71098;SHT35;58754;47.622;-2.986;2023-05-10T02:33:20;21.07;58.25
71098;SHT35;58754;47.622;-2.986;2023-05-10T02:35:46;21.10;58.21
71098;SHT35;58754;47.622;-2.986;2023-05-10T02:38:14;21.08;58.20
71098;SHT35;58754;47.622;-2.986;2023-05-10T02:40:41;21.07;58.25
71098;SHT35;58754;47.622;-2.986;2023-05-10T02:43:12;21.07;58.16
71098;SHT35;58754;47.622;-2.986;2023-05-10T02:45:40;21.08;58.24
71098;SHT35;58754;47.622;-2.986;2023-05-10T02:48:07;21.07;58.15
71098;SHT35;58754;47.622;-2.986;2023-05-10T02:50:34;21.06;58.20
71098;SHT35;58754;47.622;-2.986;2023-05-10T02:53:05;21.04;58.16
71098;SHT35;58754;47.622;-2.986;2023-05-10T02:55:36;21.07;58.22
71098;SHT35;58754;47.622;-2.986;2023-05-10T02:58:04;21.07;58.19
71098;SHT35;58754;47.622;-2.986;2023-05-10T03:00:31;21.06;58.20
71098;SHT35;58754;47.622;-2.986;2023-05-10T03:02:56;21.04;58.15
71098;SHT35;58754;47.622;-2.986;2023-05-10T03:05:22;21.03;58.19
71098;SHT35;58754;47.622;-2.986;2023-05-10T03:07:49;21.04;58.23
71098;SHT35;58754;47.622;-2.986;2023-05-10T03:10:15;21.06;58.19
71098;SHT35;58754;47.622;-2.986;2023-05-10T03:18:06;21.03;58.17
71098;SHT35;58754;47.622;-2.986;2023-05-10T03:20:38;21.04;58.17
71098;SHT35;58754;47.622;-2.986;2023-05-10T03:23:27;21.01;58.20
71098;SHT35;58754;47.622;-2.986;2023-05-10T03:25:55;21.04;58.21
71098;SHT35;58754;47.622;-2.986;2023-05-10T03:28:25;21.04;58.20
71098;SHT35;58754;47.622;-2.986;2023-05-10T03:30:53;21.03;58.20
71098;SHT35;58754;47.622;-2.986;2023-05-10T03:33:20;21.03;58.16
71098;SHT35;58754;47.622;-2.986;2023-05-10T03:35:46;21.01;58.21
71098;SHT35;58754;47.622;-2.986;2023-05-10T03:38:14;21.01;58.25
71098;SHT35;58754;47.622;-2.986;2023-05-10T03:40:40;21.00;58.21
71098;SHT35;58754;47.622;-2.986;2023-05-10T03:43:06;21.01;58.22
71098;SHT35;58754;47.622;-2.986;2023-05-10T03:45:32;20.98;58.22
71098;SHT35;58754;47.622;-2.986;2023-05-10T03:47:58;21.00;58.17
71098;SHT35;58754;47.622;-2.986;2023-05-10T03:50:24;21.00;58.21
71098;SHT35;58754;47.622;-2.986;2023-05-10T03:52:49;20.98;58.22
71098;SHT35;58754;47.622;-2.986;2023-05-10T03:55:15;20.98;58.21
71098;SHT35;58754;47.622;-2.986;2023-05-10T03:57:41;20.97;58.19
71098;SHT35;58754;47.622;-2.986;2023-05-10T04:00:08;20.98;58.18
71098;SHT35;58754;47.622;-2.986;2023-05-10T04:02:34;20.98;58.20
71098;SHT35;58754;47.622;-2.986;2023-05-10T04:05:00;21.01;58.25
71098;SHT35;58754;47.622;-2.986;2023-05-10T04:07:25;21.00;58.20
71098;SHT35;58754;47.622;-2.986;2023-05-10T04:09:51;21.00;58.23
71098;SHT35;58754;47.622;-2.986;2023-05-10T04:12:17;20.98;58.21
71098;SHT35;58754;47.622;-2.986;2023-05-10T04:14:43;21.00;58.22
71098;SHT35;58754;47.622;-2.986;2023-05-10T04:17:09;20.98;58.23
71098;SHT35;58754;47.622;-2.986;2023-05-10T04:19:35;20.98;58.20
71098;SHT35;58754;47.622;-2.986;2023-05-10T04:22:02;20.98;58.23
71098;SHT35;58754;47.622;-2.986;2023-05-10T04:24:28;20.97;58.23
71098;SHT35;58754;47.622;-2.986;2023-05-10T04:26:54;20.97;58.27
71098;SHT35;58754;47.622;-2.986;2023-05-10T04:29:20;20.97;58.27
71098;SHT35;58754;47.622;-2.986;2023-05-10T04:31:46;20.97;58.26
71098;SHT35;58754;47.622;-2.986;2023-05-10T04:34:12;20.97;58.23
71098;SHT35;58754;47.622;-2.986;2023-05-10T04:36:38;20.96;58.24
71098;SHT35;58754;47.622;-2.986;2023-05-10T04:39:04;20.96;58.23
71098;SHT35;58754;47.622;-2.986;2023-05-10T04:41:30;20.97;58.22
71098;SHT35;58754;47.622;-2.986;2023-05-10T04:43:56;20.93;58.22
71098;SHT35;58754;47.622;-2.986;2023-05-10T04:46:21;20.96;58.20
71098;SHT35;58754;47.622;-2.986;2023-05-10T04:48:47;20.94;58.27
71098;SHT35;58754;47.622;-2.986;2023-05-10T04:51:13;20.96;58.20
71098;SHT35;58754;47.622;-2.986;2023-05-10T04:53:39;20.96;58.20
71098;SHT35;58754;47.622;-2.986;2023-05-10T04:56:05;20.96;58.25
71098;SHT35;58754;47.622;-2.986;2023-05-10T04:58:31;20.96;58.29
71098;SHT35;58754;47.622;-2.986;2023-05-10T05:00:57;20.96;58.26
71098;SHT35;58754;47.622;-2.986;2023-05-10T05:03:29;20.91;58.23
71098;SHT35;58754;47.622;-2.986;2023-05-10T05:05:55;20.94;58.24
71098;SHT35;58754;47.622;-2.986;2023-05-10T05:08:21;20.93;58.26
71098;SHT35;58754;47.622;-2.986;2023-05-10T05:10:48;20.94;58.26
71098;SHT35;58754;47.622;-2.986;2023-05-10T05:13:15;20.93;58.25
71098;SHT35;58754;47.622;-2.986;2023-05-10T05:15:41;20.93;58.27
71098;SHT35;58754;47.622;-2.986;2023-05-10T05:18:07;20.96;58.24
71098;SHT35;58754;47.622;-2.986;2023-05-10T05:20:33;20.94;58.23
71098;SHT35;58754;47.622;-2.986;2023-05-10T05:23:02;20.93;58.25
71098;SHT35;58754;47.622;-2.986;2023-05-10T05:25:27;20.90;58.22
71098;SHT35;58754;47.622;-2.986;2023-05-10T05:27:53;20.90;58.30
71098;SHT35;58754;47.622;-2.986;2023-05-10T05:30:19;20.90;58.27
71098;SHT35;58754;47.622;-2.986;2023-05-10T05:32:45;20.90;58.24
71098;SHT35;58754;47.622;-2.986;2023-05-10T05:35:12;20.91;58.23
71098;SHT35;58754;47.622;-2.986;2023-05-10T05:37:38;20.91;58.25
71098;SHT35;58754;47.622;-2.986;2023-05-10T05:40:05;20.90;58.27
71098;SHT35;58754;47.622;-2.986;2023-05-10T05:42:31;20.91;58.23
71098;SHT35;58754;47.622;-2.986;2023-05-10T05:44:57;20.91;58.27
71098;SHT35;58754;47.622;-2.986;2023-05-10T05:47:23;20.91;58.23
71098;SHT35;58754;47.622;-2.986;2023-05-10T05:49:48;20.89;58.26
71098;SHT35;58754;47.622;-2.986;2023-05-10T05:52:14;20.90;58.29
71098;SHT35;58754;47.622;-2.986;2023-05-10T05:54:40;20.91;58.23
71098;SHT35;58754;47.622;-2.986;2023-05-10T05:57:06;20.91;58.29
71098;SHT35;58754;47.622;-2.986;2023-05-10T05:59:31;20.90;58.28
71098;SHT35;58754;47.622;-2.986;2023-05-10T06:01:57;20.90;58.29
71098;SHT35;58754;47.622;-2.986;2023-05-10T06:04:24;20.91;58.30
71098;SHT35;58754;47.622;-2.986;2023-05-10T06:06:49;20.90;58.32
71098;SHT35;58754;47.622;-2.986;2023-05-10T06:09:15;20.89;58.27
71098;SHT35;58754;47.622;-2.986;2023-05-10T06:11:41;20.90;58.27
71098;SHT35;58754;47.622;-2.986;2023-05-10T06:14:07;20.89;58.32
71098;SHT35;58754;47.622;-2.986;2023-05-10T06:16:36;20.87;58.29
71098;SHT35;58754;47.622;-2.986;2023-05-10T06:19:02;20.89;58.36
71098;SHT35;58754;47.622;-2.986;2023-05-10T06:21:28;20.87;58.33
71098;SHT35;58754;47.622;-2.986;2023-05-10T06:23:55;20.86;58.32
71098;SHT35;58754;47.622;-2.986;2023-05-10T06:26:21;20.86;58.37
71098;SHT35;58754;47.622;-2.986;2023-05-10T06:28:46;20.87;58.34
71098;SHT35;58754;47.622;-2.986;2023-05-10T06:31:12;20.86;58.35
71098;SHT35;58754;47.622;-2.986;2023-05-10T06:33:38;20.86;58.37
71098;SHT35;58754;47.622;-2.986;2023-05-10T06:36:04;20.86;58.39
71098;SHT35;58754;47.622;-2.986;2023-05-10T06:38:30;20.87;58.35
71098;SHT35;58754;47.622;-2.986;2023-05-10T06:40:56;20.86;58.40
71098;SHT35;58754;47.622;-2.986;2023-05-10T06:43:21;20.87;58.41
71098;SHT35;58754;47.622;-2.986;2023-05-10T06:45:50;20.84;58.39
71098;SHT35;58754;47.622;-2.986;2023-05-10T06:48:16;20.84;58.39
71098;SHT35;58754;47.622;-2.986;2023-05-10T06:50:42;20.87;58.44
71098;SHT35;58754;47.622;-2.986;2023-05-10T06:53:08;20.86;58.44
71098;SHT35;58754;47.622;-2.986;2023-05-10T06:55:33;20.87;58.45
71098;SHT35;58754;47.622;-2.986;2023-05-10T06:57:59;20.86;58.48
71098;SHT35;58754;47.622;-2.986;2023-05-10T07:00:25;20.84;58.44
71098;SHT35;58754;47.622;-2.986;2023-05-10T07:02:51;20.86;58.46
71098;SHT35;58754;47.622;-2.986;2023-05-10T07:05:17;20.87;58.47
71098;SHT35;58754;47.622;-2.986;2023-05-10T07:07:43;20.86;58.47
71098;SHT35;58754;47.622;-2.986;2023-05-10T07:10:09;20.83;58.45
71098;SHT35;58754;47.622;-2.986;2023-05-10T07:12:35;20.87;58.47
71098;SHT35;58754;47.622;-2.986;2023-05-10T07:15:01;20.87;58.49
71098;SHT35;58754;47.622;-2.986;2023-05-10T07:17:26;20.86;58.51
71098;SHT35;58754;47.622;-2.986;2023-05-10T07:19:52;20.86;58.51
71098;SHT35;58754;47.622;-2.986;2023-05-10T07:22:18;20.83;58.49
71098;SHT35;58754;47.622;-2.986;2023-05-10T07:24:45;20.86;58.46
71098;SHT35;58754;47.622;-2.986;2023-05-10T07:27:11;20.84;58.49
71098;SHT35;58754;47.622;-2.986;2023-05-10T07:29:38;20.86;58.49
71098;SHT35;58754;47.622;-2.986;2023-05-10T07:32:04;20.83;58.50
71098;SHT35;58754;47.622;-2.986;2023-05-10T07:34:31;20.86;58.53
71098;SHT35;58754;47.622;-2.986;2023-05-10T07:37:00;20.86;58.48
71098;SHT35;58754;47.622;-2.986;2023-05-10T07:39:27;20.86;58.51
71098;SHT35;58754;47.622;-2.986;2023-05-10T07:41:53;20.86;58.52
71098;SHT35;58754;47.622;-2.986;2023-05-10T07:44:19;20.84;58.50
71098;SHT35;58754;47.622;-2.986;2023-05-10T07:46:46;20.84;58.49
71098;SHT35;58754;47.622;-2.986;2023-05-10T07:49:12;20.83;58.52
71098;SHT35;58754;47.622;-2.986;2023-05-10T07:51:38;20.83;58.51
71098;SHT35;58754;47.622;-2.986;2023-05-10T07:54:04;20.84;58.54
71098;SHT35;58754;47.622;-2.986;2023-05-10T07:56:31;20.81;58.56
71098;SHT35;58754;47.622;-2.986;2023-05-10T07:58:58;20.86;58.50
71098;SHT35;58754;47.622;-2.986;2023-05-10T08:01:25;20.83;58.53
71098;SHT35;58754;47.622;-2.986;2023-05-10T08:03:51;20.83;58.52
71098;SHT35;58754;47.622;-2.986;2023-05-10T08:06:19;20.83;58.53
71098;SHT35;58754;47.622;-2.986;2023-05-10T08:08:47;20.84;58.49
71098;SHT35;58754;47.622;-2.986;2023-05-10T08:11:18;20.81;58.51
71098;SHT35;58754;47.622;-2.986;2023-05-10T08:13:48;20.86;58.49
71098;SHT35;58754;47.622;-2.986;2023-05-10T08:16:15;20.80;58.54
71098;SHT35;58754;47.622;-2.986;2023-05-10T08:18:44;20.81;58.51
71098;SHT35;58754;47.622;-2.986;2023-05-10T08:21:12;20.81;58.51
71098;SHT35;58754;47.622;-2.986;2023-05-10T08:23:38;20.83;58.51
71098;SHT35;58754;47.622;-2.986;2023-05-10T08:26:03;20.83;58.53
71098;SHT35;58754;47.622;-2.986;2023-05-10T08:28:29;20.83;58.48
71098;SHT35;58754;47.622;-2.986;2023-05-10T08:30:55;20.81;58.51
71098;SHT35;58754;47.622;-2.986;2023-05-10T08:33:21;20.84;58.48
71098;SHT35;58754;47.622;-2.986;2023-05-10T08:35:46;20.81;58.49
71098;SHT35;58754;47.622;-2.986;2023-05-10T08:38:12;20.81;58.54
71098;SHT35;58754;47.622;-2.986;2023-05-10T08:40:41;20.81;58.54
71098;SHT35;58754;47.622;-2.986;2023-05-10T08:43:11;20.81;58.50
71098;SHT35;58754;47.622;-2.986;2023-05-10T08:45:39;20.83;58.55
71098;SHT35;58754;47.622;-2.986;2023-05-10T08:48:06;20.84;58.55
71098;SHT35;58754;47.622;-2.986;2023-05-10T08:50:38;20.81;58.47
71098;SHT35;58754;47.622;-2.986;2023-05-10T08:53:06;20.81;58.51
71098;SHT35;58754;47.622;-2.986;2023-05-10T08:55:34;20.83;58.53
71098;SHT35;58754;47.622;-2.986;2023-05-10T08:58:03;20.84;58.49
71098;SHT35;58754;47.622;-2.986;2023-05-10T09:00:29;20.83;58.50
71098;SHT35;58754;47.622;-2.986;2023-05-10T09:02:57;20.84;58.50
71098;SHT35;58754;47.622;-2.986;2023-05-10T09:05:23;20.81;58.55
71098;SHT35;58754;47.622;-2.986;2023-05-10T09:07:49;20.83;58.51
71098;SHT35;58754;47.622;-2.986;2023-05-10T09:10:15;20.81;58.57
71098;SHT35;58754;47.622;-2.986;2023-05-10T09:12:41;20.83;58.51
71098;SHT35;58754;47.622;-2.986;2023-05-10T09:15:11;20.83;58.52
71098;SHT35;58754;47.622;-2.986;2023-05-10T09:17:39;20.80;58.55
71098;SHT35;58754;47.622;-2.986;2023-05-10T09:20:06;20.80;58.51
71098;SHT35;58754;47.622;-2.986;2023-05-10T09:22:35;20.84;58.55
71098;SHT35;58754;47.622;-2.986;2023-05-10T09:27:35;20.80;58.53
71098;SHT35;58754;47.622;-2.986;2023-05-10T09:30:01;20.83;58.54
71098;SHT35;58754;47.622;-2.986;2023-05-10T09:32:44;20.84;58.54
71098;SHT35;58754;47.622;-2.986;2023-05-10T09:35:12;20.84;58.55
71098;SHT35;58754;47.622;-2.986;2023-05-10T09:37:49;20.86;58.56
71098;SHT35;58754;47.622;-2.986;2023-05-10T09:40:26;20.86;58.54
71098;SHT35;58754;47.622;-2.986;2023-05-10T09:42:56;20.83;58.55
71098;SHT35;58754;47.622;-2.986;2023-05-10T09:45:31;20.83;58.56
71098;SHT35;58754;47.622;-2.986;2023-05-10T09:47:58;20.83;58.54
71098;SHT35;58754;47.622;-2.986;2023-05-10T09:50:25;20.81;58.54
71098;SHT35;58754;47.622;-2.986;2023-05-10T09:52:59;20.86;58.54
71098;SHT35;58754;47.622;-2.986;2023-05-10T09:55:37;20.84;58.55
71098;SHT35;58754;47.622;-2.986;2023-05-10T09:58:03;20.86;58.54
71098;SHT35;58754;47.622;-2.986;2023-05-10T10:00:37;20.84;58.48
71098;SHT35;58754;47.622;-2.986;2023-05-10T10:03:04;20.86;58.52
71098;SHT35;58754;47.622;-2.986;2023-05-10T10:05:31;20.86;58.51
71098;SHT35;58754;47.622;-2.986;2023-05-10T10:07:58;20.84;58.49
71098;SHT35;58754;47.622;-2.986;2023-05-10T10:10:27;20.84;58.50
71098;SHT35;58754;47.622;-2.986;2023-05-10T10:12:54;20.86;58.50
71098;SHT35;58754;47.622;-2.986;2023-05-10T10:15:21;20.87;58.52
71098;SHT35;58754;47.622;-2.986;2023-05-10T10:17:48;20.87;58.51
71098;SHT35;58754;47.622;-2.986;2023-05-10T10:20:15;20.86;58.50
71098;SHT35;58754;47.622;-2.986;2023-05-10T10:22:41;20.87;58.47
71098;SHT35;58754;47.622;-2.986;2023-05-10T10:25:11;20.84;58.51
71098;SHT35;58754;47.622;-2.986;2023-05-10T10:30:41;20.86;58.54
71098;SHT35;58754;47.622;-2.986;2023-05-10T10:35:58;20.87;58.51
71098;SHT35;58754;47.622;-2.986;2023-05-10T10:38:24;20.87;58.51
71098;SHT35;58754;47.622;-2.986;2023-05-10T10:41:09;20.87;58.51
71098;SHT35;58754;47.622;-2.986;2023-05-10T10:43:35;20.90;58.53
71098;SHT35;58754;47.622;-2.986;2023-05-10T10:46:15;20.89;58.50
71098;SHT35;58754;47.622;-2.986;2023-05-10T10:48:48;20.91;58.54
71098;SHT35;58754;47.622;-2.986;2023-05-10T10:51:15;20.89;58.53
71098;SHT35;58754;47.622;-2.986;2023-05-10T10:53:41;20.91;58.55
71098;SHT35;58754;47.622;-2.986;2023-05-10T10:56:07;20.89;58.51
71098;SHT35;58754;47.622;-2.986;2023-05-10T10:58:35;20.90;58.53
71098;SHT35;58754;47.622;-2.986;2023-05-10T11:01:12;20.90;58.54
71098;SHT35;58754;47.622;-2.986;2023-05-10T11:03:38;20.90;58.53
71098;SHT35;58754;47.622;-2.986;2023-05-10T11:06:04;20.90;58.58
71098;SHT35;58754;47.622;-2.986;2023-05-10T11:08:34;20.89;58.59
71098;SHT35;58754;47.622;-2.986;2023-05-10T11:13:34;20.89;58.54
71098;SHT35;58754;47.622;-2.986;2023-05-10T11:16:44;20.89;58.63
71098;SHT35;58754;47.622;-2.986;2023-05-10T11:19:12;20.91;58.62
71098;SHT35;58754;47.622;-2.986;2023-05-10T11:21:53;20.89;58.62
71098;SHT35;58754;47.622;-2.986;2023-05-10T11:24:38;20.90;58.67
71098;SHT35;58754;47.622;-2.986;2023-05-10T11:27:04;20.90;58.67
71098;SHT35;58754;47.622;-2.986;2023-05-10T11:29:29;20.90;58.68
71098;SHT35;58754;47.622;-2.986;2023-05-10T11:31:59;20.89;58.68
71098;SHT35;58754;47.622;-2.986;2023-05-10T11:34:29;20.90;58.71
71098;SHT35;58754;47.622;-2.986;2023-05-10T11:36:57;20.89;58.71
71098;SHT35;58754;47.622;-2.986;2023-05-10T11:39:27;20.89;58.71
71098;SHT35;58754;47.622;-2.986;2023-05-10T11:41:54;20.89;58.72
71098;SHT35;58754;47.622;-2.986;2023-05-10T11:44:19;20.93;58.72
71098;SHT35;58754;47.622;-2.986;2023-05-10T11:46:45;20.90;58.72
71098;SHT35;58754;47.622;-2.986;2023-05-10T11:49:11;20.89;58.74
71098;SHT35;58754;47.622;-2.986;2023-05-10T11:51:38;20.90;58.75
71098;SHT35;58754;47.622;-2.986;2023-05-10T11:54:10;20.87;58.75
71098;SHT35;58754;47.622;-2.986;2023-05-10T11:56:37;20.91;58.77
71098;SHT35;58754;47.622;-2.986;2023-05-10T11:59:04;20.89;58.77
71098;SHT35;58754;47.622;-2.986;2023-05-10T12:01:30;20.90;58.78
71098;SHT35;58754;47.622;-2.986;2023-05-10T12:03:57;20.90;58.78
71098;SHT35;58754;47.622;-2.986;2023-05-10T12:06:27;20.91;58.76
71098;SHT35;58754;47.622;-2.986;2023-05-10T12:08:54;20.90;58.77
71098;SHT35;58754;47.622;-2.986;2023-05-10T12:11:24;20.90;58.76
71098;SHT35;58754;47.622;-2.986;2023-05-10T12:13:50;20.91;58.75
71098;SHT35;58754;47.622;-2.986;2023-05-10T12:16:21;20.93;58.76
71098;SHT35;58754;47.622;-2.986;2023-05-10T12:18:52;20.94;58.78
71098;SHT35;58754;47.622;-2.986;2023-05-10T12:21:20;20.94;58.77
71098;SHT35;58754;47.622;-2.986;2023-05-10T12:23:48;20.90;58.79
71098;SHT35;58754;47.622;-2.986;2023-05-10T12:26:14;20.91;58.74
71098;SHT35;58754;47.622;-2.986;2023-05-10T12:28:39;20.91;58.77
71098;SHT35;58754;47.622;-2.986;2023-05-10T12:31:06;20.93;58.83
71098;SHT35;58754;47.622;-2.986;2023-05-10T12:33:39;20.91;58.80
71098;SHT35;58754;47.622;-2.986;2023-05-10T12:36:08;20.93;58.76
71098;SHT35;58754;47.622;-2.986;2023-05-10T12:38:39;20.91;58.78
71098;SHT35;58754;47.622;-2.986;2023-05-10T12:41:09;20.91;58.78
71098;SHT35;58754;47.622;-2.986;2023-05-10T12:43:35;20.90;58.76
71098;SHT35;58754;47.622;-2.986;2023-05-10T12:46:05;20.91;58.79
71098;SHT35;58754;47.622;-2.986;2023-05-10T12:48:31;20.91;58.77
71098;SHT35;58754;47.622;-2.986;2023-05-10T12:50:59;20.93;58.81
71098;SHT35;58754;47.622;-2.986;2023-05-10T12:53:25;20.90;58.80
71098;SHT35;58754;47.622;-2.986;2023-05-10T12:55:51;20.91;58.81
71098;SHT35;58754;47.622;-2.986;2023-05-10T12:58:16;20.91;58.78
71098;SHT35;58754;47.622;-2.986;2023-05-10T13:00:42;20.91;58.80
71098;SHT35;58754;47.622;-2.986;2023-05-10T13:03:09;20.93;58.79
71098;SHT35;58754;47.622;-2.986;2023-05-10T13:05:36;20.94;58.79
71098;SHT35;58754;47.622;-2.986;2023-05-10T13:08:02;20.91;58.80
71098;SHT35;58754;47.622;-2.986;2023-05-10T13:10:29;20.91;58.77
71098;SHT35;58754;47.622;-2.986;2023-05-10T13:12:56;20.93;58.79
71098;SHT35;58754;47.622;-2.986;2023-05-10T13:15:22;20.94;58.82
71098;SHT35;58754;47.622;-2.986;2023-05-10T13:17:48;20.94;58.76
71098;SHT35;58754;47.622;-2.986;2023-05-10T13:20:13;20.91;58.81
71098;SHT35;58754;47.622;-2.986;2023-05-10T13:22:41;20.96;58.78
71098;SHT35;58754;47.622;-2.986;2023-05-10T13:25:07;20.93;58.76
71098;SHT35;58754;47.622;-2.986;2023-05-10T13:27:33;20.93;58.75
71098;SHT35;58754;47.622;-2.986;2023-05-10T13:29:58;20.91;58.76
71098;SHT35;58754;47.622;-2.986;2023-05-10T13:32:25;20.93;58.72
71098;SHT35;58754;47.622;-2.986;2023-05-10T13:34:51;20.94;58.75
71098;SHT35;58754;47.622;-2.986;2023-05-10T13:37:17;20.94;58.74
71098;SHT35;58754;47.622;-2.986;2023-05-10T13:39:42;20.93;58.70
71098;SHT35;58754;47.622;-2.986;2023-05-10T13:42:08;20.91;58.74
71098;SHT35;58754;47.622;-2.986;2023-05-10T13:44:34;20.97;58.74
71098;SHT35;58754;47.622;-2.986;2023-05-10T13:47:01;20.96;58.65
71098;SHT35;58754;47.622;-2.986;2023-05-10T13:49:27;20.96;58.72
71098;SHT35;58754;47.622;-2.986;2023-05-10T13:51:52;20.93;58.70
71098;SHT35;58754;47.622;-2.986;2023-05-10T13:54:18;20.93;58.66
71098;SHT35;58754;47.622;-2.986;2023-05-10T13:56:45;20.96;58.62
71098;SHT35;58754;47.622;-2.986;2023-05-10T13:59:12;20.93;58.63
71098;SHT35;58754;47.622;-2.986;2023-05-10T14:01:42;20.96;58.63
71098;SHT35;58754;47.622;-2.986;2023-05-10T14:04:11;20.96;58.59
71098;SHT35;58754;47.622;-2.986;2023-05-10T14:06:37;20.94;58.58
71098;SHT35;58754;47.622;-2.986;2023-05-10T14:09:03;20.94;58.58
71098;SHT35;58754;47.622;-2.986;2023-05-10T14:11:28;20.97;58.52
71098;SHT35;58754;47.622;-2.986;2023-05-10T14:13:55;20.96;58.50
71098;SHT35;58754;47.622;-2.986;2023-05-10T14:16:20;20.96;58.51
71098;SHT35;58754;47.622;-2.986;2023-05-10T14:18:46;20.96;58.46
71098;SHT35;58754;47.622;-2.986;2023-05-10T14:21:12;20.97;58.45
71098;SHT35;58754;47.622;-2.986;2023-05-10T14:23:38;20.94;58.39
71098;SHT35;58754;47.622;-2.986;2023-05-10T14:26:04;20.96;58.38
71098;SHT35;58754;47.622;-2.986;2023-05-10T14:28:30;20.96;58.36
71098;SHT35;58754;47.622;-2.986;2023-05-10T14:30:55;20.97;58.35
71098;SHT35;58754;47.622;-2.986;2023-05-10T14:33:21;20.98;58.32
71098;SHT35;58754;47.622;-2.986;2023-05-10T14:35:47;20.97;58.34
71098;SHT35;58754;47.622;-2.986;2023-05-10T14:38:13;20.94;58.29
71098;SHT35;58754;47.622;-2.986;2023-05-10T14:40:39;20.98;58.28
71098;SHT35;58754;47.622;-2.986;2023-05-10T14:43:05;20.97;58.26
71098;SHT35;58754;47.622;-2.986;2023-05-10T14:45:31;20.96;58.23
71098;SHT35;58754;47.622;-2.986;2023-05-10T14:47:57;20.97;58.20
71098;SHT35;58754;47.622;-2.986;2023-05-10T14:50:23;20.96;58.19
71098;SHT35;58754;47.622;-2.986;2023-05-10T14:52:49;21.00;58.16
71098;SHT35;58754;47.622;-2.986;2023-05-10T14:55:15;20.97;58.15
71098;SHT35;58754;47.622;-2.986;2023-05-10T14:57:41;20.97;58.09
71098;SHT35;58754;47.622;-2.986;2023-05-10T15:00:07;20.97;58.11
71098;SHT35;58754;47.622;-2.986;2023-05-10T15:02:33;20.98;58.06
71098;SHT35;58754;47.622;-2.986;2023-05-10T15:04:59;20.98;58.06
71098;SHT35;58754;47.622;-2.986;2023-05-10T15:07:25;20.96;58.04
71098;SHT35;58754;47.622;-2.986;2023-05-10T15:09:51;20.97;58.04
71098;SHT35;58754;47.622;-2.986;2023-05-10T15:12:20;20.98;58.02
71098;SHT35;58754;47.622;-2.986;2023-05-10T15:14:46;20.96;58.03
71098;SHT35;58754;47.622;-2.986;2023-05-10T15:17:12;20.98;58.03
71098;SHT35;58754;47.622;-2.986;2023-05-10T15:19:37;20.98;58.00
71098;SHT35;58754;47.622;-2.986;2023-05-10T15:22:04;20.98;57.96
71098;SHT35;58754;47.622;-2.986;2023-05-10T15:24:30;21.00;57.98
71098;SHT35;58754;47.622;-2.986;2023-05-10T15:26:56;21.00;57.96
71098;SHT35;58754;47.622;-2.986;2023-05-10T15:29:22;20.98;57.95
71098;SHT35;58754;47.622;-2.986;2023-05-10T15:31:49;21.00;57.95
71098;SHT35;58754;47.622;-2.986;2023-05-10T15:34:16;21.00;57.92
71098;SHT35;58754;47.622;-2.986;2023-05-10T15:36:42;21.00;57.91
71098;SHT35;58754;47.622;-2.986;2023-05-10T15:39:08;20.98;57.90
71098;SHT35;58754;47.622;-2.986;2023-05-10T15:41:35;20.98;57.91
71098;SHT35;58754;47.622;-2.986;2023-05-10T15:44:01;21.00;57.90